Terminal Aerodrome Forecast
Issued by NWS

Home | Current Version | Previous Version | Text Only | Print | Product List | Glossary On
Versions: 1 2 3 4 5 6 7 8 9 10 11 12 13 14 15 16 17 18 19 20 21 22 23 24 25 26 27 28 29 30
000
FTUS45 KBOU 271927 AAA
TAFBJC
TAF AMD
KBJC 271927Z 2719/2818 36010KT P6SM VCSH SCT040 BKN070
      TEMPO 2719/2720 -SHRA BKN020 OVC040
     FM272000 34013G21KT P6SM SCT070 BKN100
     FM280100 33008KT P6SM SCT060 BKN100
     FM280500 25008KT P6SM SCT100 BKN140
     FM281400 36012KT P6SM SCT040 BKN060=

USA.gov is the U.S. government's official web portal to all federal, state and local government web resources and services.